sensor_id;sensor_type;location;lat;lon;timestamp;P1;durP1;ratioP1;P2;durP2;ratioP2
44139;SDS011;29803;51.048;4.686;2023-09-18T00:00:35;16.15;;;9.63;;
44139;SDS011;29803;51.048;4.686;2023-09-18T00:03:05;13.50;;;9.20;;
44139;SDS011;29803;51.048;4.686;2023-09-18T00:05:36;13.55;;;10.07;;
44139;SDS011;29803;51.048;4.686;2023-09-18T00:08:06;21.02;;;10.07;;
44139;SDS011;29803;51.048;4.686;2023-09-18T00:10:37;18.98;;;9.52;;
44139;SDS011;29803;51.048;4.686;2023-09-18T00:13:08;14.43;;;8.77;;
44139;SDS011;29803;51.048;4.686;2023-09-18T00:15:38;16.30;;;8.43;;
44139;SDS011;29803;51.048;4.686;2023-09-18T00:18:11;14.27;;;8.90;;
44139;SDS011;29803;51.048;4.686;2023-09-18T00:20:41;16.23;;;9.48;;
44139;SDS011;29803;51.048;4.686;2023-09-18T00:23:12;19.15;;;10.35;;
44139;SDS011;29803;51.048;4.686;2023-09-18T00:25:43;18.13;;;10.07;;
44139;SDS011;29803;51.048;4.686;2023-09-18T00:28:13;18.73;;;9.77;;
44139;SDS011;29803;51.048;4.686;2023-09-18T00:30:47;22.02;;;10.27;;
44139;SDS011;29803;51.048;4.686;2023-09-18T00:33:20;24.08;;;10.60;;
44139;SDS011;29803;51.048;4.686;2023-09-18T00:35:51;16.40;;;10.00;;
44139;SDS011;29803;51.048;4.686;2023-09-18T00:38:22;14.55;;;9.68;;
44139;SDS011;29803;51.048;4.686;2023-09-18T00:40:52;14.48;;;9.85;;
44139;SDS011;29803;51.048;4.686;2023-09-18T00:43:23;15.85;;;10.57;;
44139;SDS011;29803;51.048;4.686;2023-09-18T00:45:53;19.95;;;10.80;;
44139;SDS011;29803;51.048;4.686;2023-09-18T00:48:24;18.23;;;10.68;;
44139;SDS011;29803;51.048;4.686;2023-09-18T00:50:56;17.27;;;10.52;;
44139;SDS011;29803;51.048;4.686;2023-09-18T00:53:26;16.85;;;10.15;;
44139;SDS011;29803;51.048;4.686;2023-09-18T00:55:57;13.65;;;9.05;;
44139;SDS011;29803;51.048;4.686;2023-09-18T00:58:30;15.82;;;8.90;;
44139;SDS011;29803;51.048;4.686;2023-09-18T01:01:01;14.63;;;8.98;;
44139;SDS011;29803;51.048;4.686;2023-09-18T01:03:33;19.05;;;10.57;;
44139;SDS011;29803;51.048;4.686;2023-09-18T01:06:04;17.25;;;9.70;;
44139;SDS011;29803;51.048;4.686;2023-09-18T01:08:40;18.27;;;10.35;;
44139;SDS011;29803;51.048;4.686;2023-09-18T01:14:19;21.60;;;10.32;;
44139;SDS011;29803;51.048;4.686;2023-09-18T01:16:56;18.40;;;10.05;;
44139;SDS011;29803;51.048;4.686;2023-09-18T01:19:38;13.85;;;9.35;;
44139;SDS011;29803;51.048;4.686;2023-09-18T01:22:11;18.70;;;9.60;;
44139;SDS011;29803;51.048;4.686;2023-09-18T01:24:43;19.17;;;9.57;;
44139;SDS011;29803;51.048;4.686;2023-09-18T01:27:16;18.77;;;10.50;;
44139;SDS011;29803;51.048;4.686;2023-09-18T01:29:47;15.23;;;8.85;;
44139;SDS011;29803;51.048;4.686;2023-09-18T01:32:19;14.13;;;8.77;;
44139;SDS011;29803;51.048;4.686;2023-09-18T01:34:56;17.20;;;9.23;;
44139;SDS011;29803;51.048;4.686;2023-09-18T01:37:30;15.77;;;9.13;;
44139;SDS011;29803;51.048;4.686;2023-09-18T01:40:01;16.42;;;8.98;;
44139;SDS011;29803;51.048;4.686;2023-09-18T01:42:36;13.85;;;8.30;;
44139;SDS011;29803;51.048;4.686;2023-09-18T01:45:07;16.42;;;9.85;;
44139;SDS011;29803;51.048;4.686;2023-09-18T01:47:38;16.58;;;8.43;;
44139;SDS011;29803;51.048;4.686;2023-09-18T01:50:09;13.00;;;8.48;;
44139;SDS011;29803;51.048;4.686;2023-09-18T01:52:40;15.73;;;8.73;;
44139;SDS011;29803;51.048;4.686;2023-09-18T01:55:11;16.35;;;9.18;;
44139;SDS011;29803;51.048;4.686;2023-09-18T01:57:41;17.40;;;8.43;;
44139;SDS011;29803;51.048;4.686;2023-09-18T02:00:13;16.38;;;8.10;;
44139;SDS011;29803;51.048;4.686;2023-09-18T02:05:18;15.85;;;8.95;;
44139;SDS011;29803;51.048;4.686;2023-09-18T02:07:49;13.82;;;8.57;;
44139;SDS011;29803;51.048;4.686;2023-09-18T02:10:20;13.60;;;9.27;;
44139;SDS011;29803;51.048;4.686;2023-09-18T02:12:50;17.35;;;9.10;;
44139;SDS011;29803;51.048;4.686;2023-09-18T02:15:21;17.38;;;9.20;;
44139;SDS011;29803;51.048;4.686;2023-09-18T02:17:52;25.77;;;10.48;;
44139;SDS011;29803;51.048;4.686;2023-09-18T02:20:40;14.67;;;9.60;;
44139;SDS011;29803;51.048;4.686;2023-09-18T02:25:56;16.63;;;8.82;;
44139;SDS011;29803;51.048;4.686;2023-09-18T02:28:27;21.00;;;10.20;;
44139;SDS011;29803;51.048;4.686;2023-09-18T02:31:03;16.77;;;10.20;;
44139;SDS011;29803;51.048;4.686;2023-09-18T02:33:34;20.13;;;10.55;;
44139;SDS011;29803;51.048;4.686;2023-09-18T02:36:04;18.00;;;9.50;;
44139;SDS011;29803;51.048;4.686;2023-09-18T02:38:35;15.55;;;9.40;;
44139;SDS011;29803;51.048;4.686;2023-09-18T02:41:06;18.27;;;10.18;;
44139;SDS011;29803;51.048;4.686;2023-09-18T02:43:36;19.77;;;10.55;;
44139;SDS011;29803;51.048;4.686;2023-09-18T02:46:08;16.48;;;10.40;;
44139;SDS011;29803;51.048;4.686;2023-09-18T02:48:38;19.27;;;11.55;;
44139;SDS011;29803;51.048;4.686;2023-09-18T02:51:09;16.42;;;10.43;;
44139;SDS011;29803;51.048;4.686;2023-09-18T02:53:40;22.05;;;11.70;;
44139;SDS011;29803;51.048;4.686;2023-09-18T02:56:10;19.55;;;10.48;;
44139;SDS011;29803;51.048;4.686;2023-09-18T02:58:42;20.33;;;10.88;;
44139;SDS011;29803;51.048;4.686;2023-09-18T03:01:12;25.40;;;11.80;;
44139;SDS011;29803;51.048;4.686;2023-09-18T03:03:43;24.08;;;10.95;;
44139;SDS011;29803;51.048;4.686;2023-09-18T03:06:14;24.60;;;11.02;;
44139;SDS011;29803;51.048;4.686;2023-09-18T03:08:44;21.50;;;11.00;;
44139;SDS011;29803;51.048;4.686;2023-09-18T03:11:15;26.55;;;12.38;;
44139;SDS011;29803;51.048;4.686;2023-09-18T03:13:46;20.48;;;11.77;;
44139;SDS011;29803;51.048;4.686;2023-09-18T03:16:17;19.80;;;11.75;;
44139;SDS011;29803;51.048;4.686;2023-09-18T03:18:47;21.63;;;11.98;;
44139;SDS011;29803;51.048;4.686;2023-09-18T03:21:19;29.15;;;11.45;;
44139;SDS011;29803;51.048;4.686;2023-09-18T03:23:49;23.52;;;10.73;;
44139;SDS011;29803;51.048;4.686;2023-09-18T03:26:20;18.95;;;10.68;;
44139;SDS011;29803;51.048;4.686;2023-09-18T03:28:50;19.27;;;10.43;;
44139;SDS011;29803;51.048;4.686;2023-09-18T03:31:21;18.58;;;10.45;;
44139;SDS011;29803;51.048;4.686;2023-09-18T03:33:51;22.75;;;11.38;;
44139;SDS011;29803;51.048;4.686;2023-09-18T03:36:22;19.60;;;10.60;;
44139;SDS011;29803;51.048;4.686;2023-09-18T03:38:53;19.15;;;11.15;;
44139;SDS011;29803;51.048;4.686;2023-09-18T03:41:24;17.88;;;9.98;;
44139;SDS011;29803;51.048;4.686;2023-09-18T03:43:54;17.65;;;9.65;;
44139;SDS011;29803;51.048;4.686;2023-09-18T03:46:25;15.65;;;9.75;;
44139;SDS011;29803;51.048;4.686;2023-09-18T03:48:55;19.48;;;9.10;;
44139;SDS011;29803;51.048;4.686;2023-09-18T03:51:27;16.58;;;8.25;;
44139;SDS011;29803;51.048;4.686;2023-09-18T03:53:58;13.65;;;7.13;;
44139;SDS011;29803;51.048;4.686;2023-09-18T03:56:28;16.85;;;7.03;;
44139;SDS011;29803;51.048;4.686;2023-09-18T03:58:59;10.20;;;6.60;;
44139;SDS011;29803;51.048;4.686;2023-09-18T04:01:31;10.10;;;5.65;;
44139;SDS011;29803;51.048;4.686;2023-09-18T04:04:02;10.48;;;5.97;;
44139;SDS011;29803;51.048;4.686;2023-09-18T04:06:37;9.20;;;5.28;;
44139;SDS011;29803;51.048;4.686;2023-09-18T04:09:15;7.25;;;4.60;;
44139;SDS011;29803;51.048;4.686;2023-09-18T04:11:45;12.88;;;4.60;;
44139;SDS011;29803;51.048;4.686;2023-09-18T04:14:16;10.27;;;4.03;;
44139;SDS011;29803;51.048;4.686;2023-09-18T04:16:46;6.28;;;3.95;;
44139;SDS011;29803;51.048;4.686;2023-09-18T04:19:16;6.30;;;3.63;;
44139;SDS011;29803;51.048;4.686;2023-09-18T04:21:47;9.27;;;3.65;;
44139;SDS011;29803;51.048;4.686;2023-09-18T04:24:18;10.13;;;3.25;;
44139;SDS011;29803;51.048;4.686;2023-09-18T04:26:49;8.35;;;3.70;;
44139;SDS011;29803;51.048;4.686;2023-09-18T04:29:20;8.25;;;2.90;;
44139;SDS011;29803;51.048;4.686;2023-09-18T04:31:51;6.88;;;2.55;;
44139;SDS011;29803;51.048;4.686;2023-09-18T04:34:24;4.13;;;2.40;;
44139;SDS011;29803;51.048;4.686;2023-09-18T04:36:54;5.13;;;2.60;;
44139;SDS011;29803;51.048;4.686;2023-09-18T04:39:24;6.13;;;2.95;;
44139;SDS011;29803;51.048;4.686;2023-09-18T04:41:55;7.63;;;2.50;;
44139;SDS011;29803;51.048;4.686;2023-09-18T04:44:26;7.30;;;2.40;;
44139;SDS011;29803;51.048;4.686;2023-09-18T04:46:57;6.15;;;2.40;;
44139;SDS011;29803;51.048;4.686;2023-09-18T04:49:28;3.42;;;2.15;;
44139;SDS011;29803;51.048;4.686;2023-09-18T04:51:58;6.65;;;2.15;;
44139;SDS011;29803;51.048;4.686;2023-09-18T04:54:28;4.50;;;2.17;;
44139;SDS011;29803;51.048;4.686;2023-09-18T04:56:59;4.47;;;2.30;;
44139;SDS011;29803;51.048;4.686;2023-09-18T04:59:29;4.20;;;2.40;;
44139;SDS011;29803;51.048;4.686;2023-09-18T05:02:00;2.53;;;1.85;;
44139;SDS011;29803;51.048;4.686;2023-09-18T05:04:30;5.03;;;2.10;;
44139;SDS011;29803;51.048;4.686;2023-09-18T05:07:01;5.35;;;2.58;;
44139;SDS011;29803;51.048;4.686;2023-09-18T05:09:32;3.40;;;2.20;;
44139;SDS011;29803;51.048;4.686;2023-09-18T05:12:04;5.13;;;2.45;;
44139;SDS011;29803;51.048;4.686;2023-09-18T05:14:35;7.65;;;2.00;;
44139;SDS011;29803;51.048;4.686;2023-09-18T05:17:05;4.72;;;2.25;;
44139;SDS011;29803;51.048;4.686;2023-09-18T05:19:36;6.28;;;2.15;;
44139;SDS011;29803;51.048;4.686;2023-09-18T05:22:08;5.05;;;2.53;;
44139;SDS011;29803;51.048;4.686;2023-09-18T05:24:40;4.82;;;2.00;;
44139;SDS011;29803;51.048;4.686;2023-09-18T05:27:10;3.88;;;2.30;;
44139;SDS011;29803;51.048;4.686;2023-09-18T05:29:42;4.20;;;1.77;;
44139;SDS011;29803;51.048;4.686;2023-09-18T05:32:13;4.53;;;1.77;;
44139;SDS011;29803;51.048;4.686;2023-09-18T05:34:43;4.68;;;1.98;;
44139;SDS011;29803;51.048;4.686;2023-09-18T05:37:14;2.97;;;1.42;;
44139;SDS011;29803;51.048;4.686;2023-09-18T05:39:45;7.45;;;1.83;;
44139;SDS011;29803;51.048;4.686;2023-09-18T05:42:16;5.20;;;2.03;;
44139;SDS011;29803;51.048;4.686;2023-09-18T05:44:46;5.38;;;2.20;;
44139;SDS011;29803;51.048;4.686;2023-09-18T05:47:17;4.85;;;1.77;;
44139;SDS011;29803;51.048;4.686;2023-09-18T05:49:47;6.10;;;2.25;;
44139;SDS011;29803;51.048;4.686;2023-09-18T05:52:18;4.47;;;2.15;;
44139;SDS011;29803;51.048;4.686;2023-09-18T05:54:48;2.08;;;1.60;;
44139;SDS011;29803;51.048;4.686;2023-09-18T05:57:19;3.40;;;1.58;;
44139;SDS011;29803;51.048;4.686;2023-09-18T05:59:49;3.55;;;1.52;;
44139;SDS011;29803;51.048;4.686;2023-09-18T06:02:20;7.53;;;1.77;;
44139;SDS011;29803;51.048;4.686;2023-09-18T06:04:55;3.90;;;1.73;;
44139;SDS011;29803;51.048;4.686;2023-09-18T06:07:36;6.20;;;1.73;;
44139;SDS011;29803;51.048;4.686;2023-09-18T06:10:07;6.30;;;2.08;;
44139;SDS011;29803;51.048;4.686;2023-09-18T06:12:38;9.43;;;1.80;;
44139;SDS011;29803;51.048;4.686;2023-09-18T06:15:09;4.20;;;2.25;;
44139;SDS011;29803;51.048;4.686;2023-09-18T06:17:41;4.90;;;2.05;;
44139;SDS011;29803;51.048;4.686;2023-09-18T06:20:12;5.03;;;1.50;;
44139;SDS011;29803;51.048;4.686;2023-09-18T06:22:43;5.03;;;2.00;;
44139;SDS011;29803;51.048;4.686;2023-09-18T06:25:13;6.18;;;1.77;;
44139;SDS011;29803;51.048;4.686;2023-09-18T06:27:44;5.57;;;1.83;;
44139;SDS011;29803;51.048;4.686;2023-09-18T06:30:16;5.90;;;1.63;;
44139;SDS011;29803;51.048;4.686;2023-09-18T06:32:46;5.35;;;1.85;;
44139;SDS011;29803;51.048;4.686;2023-09-18T06:35:17;5.18;;;2.20;;
44139;SDS011;29803;51.048;4.686;2023-09-18T06:37:48;7.15;;;2.13;;
44139;SDS011;29803;51.048;4.686;2023-09-18T06:40:18;3.50;;;2.00;;
44139;SDS011;29803;51.048;4.686;2023-09-18T06:42:49;3.55;;;1.70;;
44139;SDS011;29803;51.048;4.686;2023-09-18T06:45:19;4.32;;;1.70;;
44139;SDS011;29803;51.048;4.686;2023-09-18T06:47:50;4.25;;;1.60;;
44139;SDS011;29803;51.048;4.686;2023-09-18T06:50:20;3.20;;;1.75;;
44139;SDS011;29803;51.048;4.686;2023-09-18T06:52:51;4.40;;;1.75;;
44139;SDS011;29803;51.048;4.686;2023-09-18T06:55:21;7.18;;;1.90;;
44139;SDS011;29803;51.048;4.686;2023-09-18T06:57:52;8.85;;;2.15;;
44139;SDS011;29803;51.048;4.686;2023-09-18T07:00:23;3.90;;;1.92;;
44139;SDS011;29803;51.048;4.686;2023-09-18T07:02:55;4.50;;;2.10;;
44139;SDS011;29803;51.048;4.686;2023-09-18T07:05:26;4.60;;;2.08;;
44139;SDS011;29803;51.048;4.686;2023-09-18T07:07:56;7.80;;;1.80;;
44139;SDS011;29803;51.048;4.686;2023-09-18T07:10:27;8.68;;;2.20;;
44139;SDS011;29803;51.048;4.686;2023-09-18T07:12:57;8.65;;;1.95;;
44139;SDS011;29803;51.048;4.686;2023-09-18T07:15:28;5.93;;;2.17;;
44139;SDS011;29803;51.048;4.686;2023-09-18T07:17:59;4.03;;;1.70;;
44139;SDS011;29803;51.048;4.686;2023-09-18T07:20:30;4.82;;;1.92;;
44139;SDS011;29803;51.048;4.686;2023-09-18T07:23:00;5.07;;;2.15;;
44139;SDS011;29803;51.048;4.686;2023-09-18T07:25:31;4.80;;;2.00;;
44139;SDS011;29803;51.048;4.686;2023-09-18T07:28:01;6.63;;;2.33;;
44139;SDS011;29803;51.048;4.686;2023-09-18T07:30:33;3.80;;;1.83;;
44139;SDS011;29803;51.048;4.686;2023-09-18T07:33:03;7.10;;;2.15;;
44139;SDS011;29803;51.048;4.686;2023-09-18T07:35:34;10.50;;;2.25;;
44139;SDS011;29803;51.048;4.686;2023-09-18T07:38:05;5.65;;;2.40;;
44139;SDS011;29803;51.048;4.686;2023-09-18T07:40:35;5.32;;;2.10;;
44139;SDS011;29803;51.048;4.686;2023-09-18T07:43:06;6.45;;;2.30;;
44139;SDS011;29803;51.048;4.686;2023-09-18T07:45:38;2.88;;;2.15;;
44139;SDS011;29803;51.048;4.686;2023-09-18T07:48:10;6.07;;;2.30;;
44139;SDS011;29803;51.048;4.686;2023-09-18T07:50:42;4.63;;;2.42;;
44139;SDS011;29803;51.048;4.686;2023-09-18T07:53:14;5.60;;;2.15;;
44139;SDS011;29803;51.048;4.686;2023-09-18T07:55:45;5.13;;;1.83;;
44139;SDS011;29803;51.048;4.686;2023-09-18T07:58:19;4.13;;;1.80;;
44139;SDS011;29803;51.048;4.686;2023-09-18T08:00:50;5.43;;;1.80;;
44139;SDS011;29803;51.048;4.686;2023-09-18T08:03:24;6.03;;;1.85;;
44139;SDS011;29803;51.048;4.686;2023-09-18T08:05:55;8.95;;;2.20;;
44139;SDS011;29803;51.048;4.686;2023-09-18T08:08:25;5.53;;;1.77;;
44139;SDS011;29803;51.048;4.686;2023-09-18T08:10:56;6.10;;;1.95;;
44139;SDS011;29803;51.048;4.686;2023-09-18T08:13:28;4.00;;;1.98;;
44139;SDS011;29803;51.048;4.686;2023-09-18T08:15:59;8.52;;;2.15;;
44139;SDS011;29803;51.048;4.686;2023-09-18T08:18:29;3.75;;;1.75;;
44139;SDS011;29803;51.048;4.686;2023-09-18T08:21:00;4.30;;;1.90;;
44139;SDS011;29803;51.048;4.686;2023-09-18T08:23:31;5.05;;;2.08;;
44139;SDS011;29803;51.048;4.686;2023-09-18T08:26:02;3.60;;;2.10;;
44139;SDS011;29803;51.048;4.686;2023-09-18T08:28:33;4.93;;;2.00;;
44139;SDS011;29803;51.048;4.686;2023-09-18T08:31:07;4.38;;;2.10;;
44139;SDS011;29803;51.048;4.686;2023-09-18T08:33:37;5.95;;;2.00;;
44139;SDS011;29803;51.048;4.686;2023-09-18T08:36:08;5.55;;;1.90;;
44139;SDS011;29803;51.048;4.686;2023-09-18T08:38:39;7.40;;;2.00;;
44139;SDS011;29803;51.048;4.686;2023-09-18T08:41:10;7.30;;;1.92;;
44139;SDS011;29803;51.048;4.686;2023-09-18T08:43:42;6.10;;;2.03;;
44139;SDS011;29803;51.048;4.686;2023-09-18T08:46:13;6.90;;;2.50;;
44139;SDS011;29803;51.048;4.686;2023-09-18T08:48:44;7.10;;;2.47;;
44139;SDS011;29803;51.048;4.686;2023-09-18T08:51:15;8.20;;;2.55;;
44139;SDS011;29803;51.048;4.686;2023-09-18T08:53:47;10.55;;;2.50;;
44139;SDS011;29803;51.048;4.686;2023-09-18T08:56:18;8.10;;;2.70;;
44139;SDS011;29803;51.048;4.686;2023-09-18T08:58:51;6.63;;;2.63;;
44139;SDS011;29803;51.048;4.686;2023-09-18T09:01:23;7.30;;;2.85;;
44139;SDS011;29803;51.048;4.686;2023-09-18T09:03:53;7.32;;;3.08;;
44139;SDS011;29803;51.048;4.686;2023-09-18T09:06:25;7.90;;;2.78;;
44139;SDS011;29803;51.048;4.686;2023-09-18T09:08:55;13.13;;;3.30;;
44139;SDS011;29803;51.048;4.686;2023-09-18T09:11:26;7.20;;;2.88;;
44139;SDS011;29803;51.048;4.686;2023-09-18T09:14:13;6.93;;;2.83;;
44139;SDS011;29803;51.048;4.686;2023-09-18T09:16:49;7.57;;;2.92;;
44139;SDS011;29803;51.048;4.686;2023-09-18T09:19:30;6.43;;;3.00;;
44139;SDS011;29803;51.048;4.686;2023-09-18T09:22:05;9.25;;;3.58;;
44139;SDS011;29803;51.048;4.686;2023-09-18T09:24:40;10.10;;;3.42;;
44139;SDS011;29803;51.048;4.686;2023-09-18T09:27:12;6.13;;;3.70;;
44139;SDS011;29803;51.048;4.686;2023-09-18T09:29:57;11.02;;;3.90;;
44139;SDS011;29803;51.048;4.686;2023-09-18T09:32:29;8.60;;;3.78;;
44139;SDS011;29803;51.048;4.686;2023-09-18T09:35:02;6.97;;;3.35;;
44139;SDS011;29803;51.048;4.686;2023-09-18T09:37:36;6.47;;;3.13;;
44139;SDS011;29803;51.048;4.686;2023-09-18T09:40:07;10.15;;;3.67;;
44139;SDS011;29803;51.048;4.686;2023-09-18T09:42:39;6.75;;;3.42;;
44139;SDS011;29803;51.048;4.686;2023-09-18T09:45:12;7.68;;;3.13;;
44139;SDS011;29803;51.048;4.686;2023-09-18T09:51:15;8.55;;;3.53;;
44139;SDS011;29803;51.048;4.686;2023-09-18T09:53:50;10.45;;;3.60;;
44139;SDS011;29803;51.048;4.686;2023-09-18T09:56:21;8.80;;;3.70;;
44139;SDS011;29803;51.048;4.686;2023-09-18T09:59:02;8.25;;;3.53;;
44139;SDS011;29803;51.048;4.686;2023-09-18T10:01:38;7.88;;;3.95;;
44139;SDS011;29803;51.048;4.686;2023-09-18T10:06:44;11.00;;;3.72;;
44139;SDS011;29803;51.048;4.686;2023-09-18T10:09:23;11.57;;;4.30;;
44139;SDS011;29803;51.048;4.686;2023-09-18T10:11:58;7.35;;;3.80;;
44139;SDS011;29803;51.048;4.686;2023-09-18T10:14:32;8.35;;;3.55;;
44139;SDS011;29803;51.048;4.686;2023-09-18T10:17:11;6.40;;;3.50;;
44139;SDS011;29803;51.048;4.686;2023-09-18T10:19:54;7.50;;;4.00;;
44139;SDS011;29803;51.048;4.686;2023-09-18T10:22:39;14.48;;;4.30;;
44139;SDS011;29803;51.048;4.686;2023-09-18T10:25:18;9.82;;;4.10;;
44139;SDS011;29803;51.048;4.686;2023-09-18T10:27:52;12.63;;;4.20;;
44139;SDS011;29803;51.048;4.686;2023-09-18T10:30:29;16.88;;;4.43;;
44139;SDS011;29803;51.048;4.686;2023-09-18T10:33:02;12.40;;;3.85;;
44139;SDS011;29803;51.048;4.686;2023-09-18T10:35:33;7.18;;;3.80;;
44139;SDS011;29803;51.048;4.686;2023-09-18T10:38:06;7.47;;;4.10;;
44139;SDS011;29803;51.048;4.686;2023-09-18T10:40:37;12.43;;;4.03;;
44139;SDS011;29803;51.048;4.686;2023-09-18T10:43:07;9.23;;;3.40;;
44139;SDS011;29803;51.048;4.686;2023-09-18T10:45:41;9.95;;;3.83;;
44139;SDS011;29803;51.048;4.686;2023-09-18T10:48:14;12.98;;;3.65;;
44139;SDS011;29803;51.048;4.686;2023-09-18T10:50:47;12.05;;;4.13;;
44139;SDS011;29803;51.048;4.686;2023-09-18T10:53:18;6.50;;;3.22;;
44139;SDS011;29803;51.048;4.686;2023-09-18T10:55:50;7.63;;;3.45;;
44139;SDS011;29803;51.048;4.686;2023-09-18T10:58:23;10.27;;;3.63;;
44139;SDS011;29803;51.048;4.686;2023-09-18T11:00:55;7.30;;;2.78;;
44139;SDS011;29803;51.048;4.686;2023-09-18T11:03:27;5.65;;;3.20;;
44139;SDS011;29803;51.048;4.686;2023-09-18T11:06:02;7.07;;;3.42;;
44139;SDS011;29803;51.048;4.686;2023-09-18T11:08:35;9.10;;;3.38;;
44139;SDS011;29803;51.048;4.686;2023-09-18T11:11:13;7.18;;;2.75;;
44139;SDS011;29803;51.048;4.686;2023-09-18T11:13:47;7.20;;;3.30;;
44139;SDS011;29803;51.048;4.686;2023-09-18T11:19:05;7.78;;;3.05;;
44139;SDS011;29803;51.048;4.686;2023-09-18T11:21:38;5.07;;;2.53;;
44139;SDS011;29803;51.048;4.686;2023-09-18T11:26:48;6.45;;;2.60;;
44139;SDS011;29803;51.048;4.686;2023-09-18T11:29:21;7.57;;;2.80;;
44139;SDS011;29803;51.048;4.686;2023-09-18T11:31:53;6.15;;;2.63;;
44139;SDS011;29803;51.048;4.686;2023-09-18T11:34:26;10.10;;;2.70;;
44139;SDS011;29803;51.048;4.686;2023-09-18T11:36:58;5.20;;;2.65;;
44139;SDS011;29803;51.048;4.686;2023-09-18T11:39:33;6.18;;;2.70;;
44139;SDS011;29803;51.048;4.686;2023-09-18T11:42:06;10.45;;;3.20;;
44139;SDS011;29803;51.048;4.686;2023-09-18T11:44:38;9.65;;;2.78;;
44139;SDS011;29803;51.048;4.686;2023-09-18T11:47:12;5.82;;;2.70;;
44139;SDS011;29803;51.048;4.686;2023-09-18T11:49:52;4.55;;;2.25;;
44139;SDS011;29803;51.048;4.686;2023-09-18T11:52:26;7.45;;;2.83;;
44139;SDS011;29803;51.048;4.686;2023-09-18T11:54:59;5.53;;;2.58;;
44139;SDS011;29803;51.048;4.686;2023-09-18T11:57:34;9.10;;;3.10;;
44139;SDS011;29803;51.048;4.686;2023-09-18T12:00:08;4.55;;;2.50;;
44139;SDS011;29803;51.048;4.686;2023-09-18T12:02:52;4.30;;;2.53;;
44139;SDS011;29803;51.048;4.686;2023-09-18T12:05:22;6.43;;;2.17;;
44139;SDS011;29803;51.048;4.686;2023-09-18T12:07:56;3.88;;;2.80;;
44139;SDS011;29803;51.048;4.686;2023-09-18T12:10:27;9.15;;;2.75;;
44139;SDS011;29803;51.048;4.686;2023-09-18T12:12:58;8.82;;;2.42;;
44139;SDS011;29803;51.048;4.686;2023-09-18T12:15:29;7.68;;;2.50;;
44139;SDS011;29803;51.048;4.686;2023-09-18T12:18:06;6.97;;;2.50;;
44139;SDS011;29803;51.048;4.686;2023-09-18T12:20:44;11.55;;;2.38;;
44139;SDS011;29803;51.048;4.686;2023-09-18T12:23:16;4.45;;;2.38;;
44139;SDS011;29803;51.048;4.686;2023-09-18T12:28:27;6.15;;;2.33;;
44139;SDS011;29803;51.048;4.686;2023-09-18T12:30:58;4.28;;;2.40;;
44139;SDS011;29803;51.048;4.686;2023-09-18T12:33:36;4.90;;;2.40;;
44139;SDS011;29803;51.048;4.686;2023-09-18T12:36:08;6.35;;;1.88;;
44139;SDS011;29803;51.048;4.686;2023-09-18T12:38:39;7.18;;;2.10;;
44139;SDS011;29803;51.048;4.686;2023-09-18T12:41:10;7.97;;;2.28;;
44139;SDS011;29803;51.048;4.686;2023-09-18T12:43:41;9.40;;;2.05;;
44139;SDS011;29803;51.048;4.686;2023-09-18T12:46:13;4.97;;;1.70;;
44139;SDS011;29803;51.048;4.686;2023-09-18T12:48:44;7.50;;;2.33;;
44139;SDS011;29803;51.048;4.686;2023-09-18T12:51:16;2.70;;;1.75;;
44139;SDS011;29803;51.048;4.686;2023-09-18T12:54:01;4.15;;;2.22;;
44139;SDS011;29803;51.048;4.686;2023-09-18T12:56:41;6.45;;;1.98;;
44139;SDS011;29803;51.048;4.686;2023-09-18T12:59:11;9.02;;;2.35;;
44139;SDS011;29803;51.048;4.686;2023-09-18T13:01:45;4.78;;;1.92;;
44139;SDS011;29803;51.048;4.686;2023-09-18T13:04:18;6.82;;;2.55;;
44139;SDS011;29803;51.048;4.686;2023-09-18T13:07:10;4.32;;;2.38;;
44139;SDS011;29803;51.048;4.686;2023-09-18T13:09:42;9.80;;;2.05;;
44139;SDS011;29803;51.048;4.686;2023-09-18T13:12:13;3.58;;;1.63;;
44139;SDS011;29803;51.048;4.686;2023-09-18T13:14:58;5.22;;;1.95;;
44139;SDS011;29803;51.048;4.686;2023-09-18T13:17:36;4.45;;;1.67;;
44139;SDS011;29803;51.048;4.686;2023-09-18T13:20:15;3.58;;;2.03;;
44139;SDS011;29803;51.048;4.686;2023-09-18T13:22:48;3.10;;;1.85;;
44139;SDS011;29803;51.048;4.686;2023-09-18T13:25:20;4.25;;;1.85;;
44139;SDS011;29803;51.048;4.686;2023-09-18T13:27:53;6.07;;;1.95;;
44139;SDS011;29803;51.048;4.686;2023-09-18T13:30:24;4.78;;;2.72;;
44139;SDS011;29803;51.048;4.686;2023-09-18T13:33:05;3.70;;;1.80;;
44139;SDS011;29803;51.048;4.686;2023-09-18T13:35:41;4.93;;;2.13;;
44139;SDS011;29803;51.048;4.686;2023-09-18T13:38:13;3.85;;;1.92;;
44139;SDS011;29803;51.048;4.686;2023-09-18T13:40:45;5.03;;;2.03;;
44139;SDS011;29803;51.048;4.686;2023-09-18T13:43:17;5.03;;;2.05;;
44139;SDS011;29803;51.048;4.686;2023-09-18T13:45:49;11.10;;;2.13;;
44139;SDS011;29803;51.048;4.686;2023-09-18T13:48:24;6.70;;;1.98;;
44139;SDS011;29803;51.048;4.686;2023-09-18T13:50:54;4.05;;;1.85;;
44139;SDS011;29803;51.048;4.686;2023-09-18T13:53:25;3.55;;;2.20;;
44139;SDS011;29803;51.048;4.686;2023-09-18T13:55:56;9.02;;;2.63;;
44139;SDS011;29803;51.048;4.686;2023-09-18T13:58:26;7.13;;;2.13;;
44139;SDS011;29803;51.048;4.686;2023-09-18T14:00:57;8.57;;;2.15;;
44139;SDS011;29803;51.048;4.686;2023-09-18T14:03:28;8.90;;;1.90;;
44139;SDS011;29803;51.048;4.686;2023-09-18T14:05:59;5.80;;;2.03;;
44139;SDS011;29803;51.048;4.686;2023-09-18T14:08:29;2.25;;;1.77;;
44139;SDS011;29803;51.048;4.686;2023-09-18T14:10:59;3.22;;;1.85;;
44139;SDS011;29803;51.048;4.686;2023-09-18T14:13:30;4.65;;;2.00;;
44139;SDS011;29803;51.048;4.686;2023-09-18T14:16:00;7.15;;;2.00;;
44139;SDS011;29803;51.048;4.686;2023-09-18T14:18:33;5.13;;;1.70;;
44139;SDS011;29803;51.048;4.686;2023-09-18T14:21:04;5.93;;;1.90;;
44139;SDS011;29803;51.048;4.686;2023-09-18T14:23:36;5.82;;;1.80;;
44139;SDS011;29803;51.048;4.686;2023-09-18T14:26:07;3.50;;;1.75;;
44139;SDS011;29803;51.048;4.686;2023-09-18T14:28:37;6.82;;;1.80;;
44139;SDS011;29803;51.048;4.686;2023-09-18T14:31:08;5.78;;;2.15;;
44139;SDS011;29803;51.048;4.686;2023-09-18T14:33:38;5.50;;;2.00;;
44139;SDS011;29803;51.048;4.686;2023-09-18T14:36:10;2.55;;;1.42;;
44139;SDS011;29803;51.048;4.686;2023-09-18T14:38:41;12.00;;;2.13;;
44139;SDS011;29803;51.048;4.686;2023-09-18T14:41:11;5.03;;;2.03;;
44139;SDS011;29803;51.048;4.686;2023-09-18T14:43:42;8.40;;;2.55;;
44139;SDS011;29803;51.048;4.686;2023-09-18T14:46:13;4.35;;;1.92;;
44139;SDS011;29803;51.048;4.686;2023-09-18T14:48:43;3.97;;;1.77;;
44139;SDS011;29803;51.048;4.686;2023-09-18T14:51:14;9.23;;;2.38;;
44139;SDS011;29803;51.048;4.686;2023-09-18T14:53:44;4.85;;;1.75;;
44139;SDS011;29803;51.048;4.686;2023-09-18T14:56:15;2.58;;;1.70;;
44139;SDS011;29803;51.048;4.686;2023-09-18T14:58:45;12.93;;;2.05;;
44139;SDS011;29803;51.048;4.686;2023-09-18T15:01:16;18.35;;;3.63;;
44139;SDS011;29803;51.048;4.686;2023-09-18T15:03:46;10.95;;;2.78;;
44139;SDS011;29803;51.048;4.686;2023-09-18T15:06:18;8.10;;;2.05;;
44139;SDS011;29803;51.048;4.686;2023-09-18T15:08:49;6.80;;;2.40;;
44139;SDS011;29803;51.048;4.686;2023-09-18T15:11:19;10.40;;;2.95;;
44139;SDS011;29803;51.048;4.686;2023-09-18T15:13:50;11.40;;;3.08;;
44139;SDS011;29803;51.048;4.686;2023-09-18T15:16:20;8.48;;;3.08;;
44139;SDS011;29803;51.048;4.686;2023-09-18T15:18:51;11.25;;;3.67;;
44139;SDS011;29803;51.048;4.686;2023-09-18T15:21:22;10.45;;;3.75;;
44139;SDS011;29803;51.048;4.686;2023-09-18T15:23:52;6.93;;;3.40;;
44139;SDS011;29803;51.048;4.686;2023-09-18T15:26:22;7.22;;;3.83;;
44139;SDS011;29803;51.048;4.686;2023-09-18T15:28:53;6.15;;;3.40;;
44139;SDS011;29803;51.048;4.686;2023-09-18T15:31:24;4.43;;;3.10;;